Time;durP1;ratioP1;P1;durP2;ratioP2;P2;SDS_P1;SDS_P2;PMS_P1;PMS_P2;Temp;Humidity;BMP_temperature;BMP_pressure;BME280_temperature;BME280_humidity;BME280_pressure;Samples;Min_cycle;Max_cycle;Signal;HPM_P1;HPM_P2
2022/01/07 00:01:18;;;;;;;;;13.25;9.00;;;;;;;;6182219;22;9458;-75
2022/01/07 00:03:43;;;;;;;;;15.25;12.00;;;;;;;;6183276;22;8749;-76
2022/01/07 00:06:09;;;;;;;;;17.00;11.50;;;;;;;;6285053;22;9879;-76
2022/01/07 00:08:36;;;;;;;;;12.25;9.50;;;;;;;;6183470;22;8752;-76
2022/01/07 00:11:03;;;;;;;;;18.25;13.25;;;;;;;;6294653;22;8833;-76
2022/01/07 00:13:31;;;;;;;;;22.75;12.00;;;;;;;;6184196;23;8768;-75
2022/01/07 00:15:57;;;;;;;;;10.50;9.00;;;;;;;;6193012;22;8808;-90
2022/01/07 00:18:26;;;;;;;;;9.50;8.50;;;;;;;;6199620;22;8689;-92
2022/01/07 00:20:54;;;;;;;;;9.00;8.50;;;;;;;;6306030;22;8735;-91
2022/01/07 00:25:54;;;;;;;;;12.25;9.00;;;;;;;;6195965;22;8781;-74
2022/01/07 00:28:22;;;;;;;;;17.50;11.25;;;;;;;;6286299;22;9288;-74
2022/01/07 00:30:59;;;;;;;;;12.50;10.75;;;;;;;;6183742;23;8763;-75
2022/01/07 00:33:25;;;;;;;;;13.25;11.25;;;;;;;;6182844;22;8776;-74
2022/01/07 00:35:56;;;;;;;;;9.67;9.67;;;;;;;;6183085;22;8815;-74
2022/01/07 00:38:45;;;;;;;;;12.25;9.75;;;;;;;;6183055;22;10096;-76
2022/01/07 00:47:01;;;;;;;;;;;;;;;;;;;;;
2022/01/07 00:50:27;;;;;;;;;;;;;;;;;;;;;
2022/01/07 00:53:36;;;;;;;;;;;;;;;;;;;;;
2022/01/07 00:58:56;;;;;;;;;12.00;9.00;;;;;;;;6150225;22;8881;-74
2022/01/07 01:01:41;;;;;;;;;11.00;8.00;;;;;;;;5972175;24;8812;-74
2022/01/07 01:04:15;;;;;;;;;6.50;6.25;;;;;;;;5976876;24;8816;-73
2022/01/07 01:06:46;;;;;;;;;9.75;7.75;;;;;;;;5954547;24;8750;-73
2022/01/07 01:09:37;;;;;;;;;10.50;8.25;;;;;;;;5972530;24;8873;-74
2022/01/07 01:12:14;;;;;;;;;9.00;8.25;;;;;;;;5977101;24;8789;-74
2022/01/07 01:14:53;;;;;;;;;11.00;9.50;;;;;;;;5978233;24;8717;-74
2022/01/07 01:17:18;;;;;;;;;6.25;6.25;;;;;;;;5977843;24;8734;-74
2022/01/07 01:19:49;;;;;;;;;11.50;8.00;;;;;;;;5974743;24;8868;-73
2022/01/07 01:22:15;;;;;;;;;7.75;7.50;;;;;;;;5977222;24;8840;-74
2022/01/07 01:24:43;;;;;;;;;12.25;11.00;;;;;;;;5976225;23;8762;-74
2022/01/07 01:27:08;;;;;;;;;11.75;6.75;;;;;;;;6065996;23;8771;-73
2022/01/07 01:29:33;;;;;;;;;8.67;6.33;;;;;;;;6062435;23;8857;-73
2022/01/07 01:31:59;;;;;;;;;7.25;5.50;;;;;;;;6059858;23;11600;-74
2022/01/07 01:34:24;;;;;;;;;8.67;5.67;;;;;;;;6060708;23;8802;-74
2022/01/07 01:36:49;;;;;;;;;9.67;7.67;;;;;;;;6063768;23;8932;-73
2022/01/07 01:39:14;;;;;;;;;11.75;7.50;;;;;;;;6136544;23;11430;-74
2022/01/07 01:41:40;;;;;;;;;9.25;7.75;;;;;;;;6155760;23;8731;-76
2022/01/07 01:44:06;;;;;;;;;6.00;4.00;;;;;;;;6154731;23;8737;-76
2022/01/07 01:46:31;;;;;;;;;4.50;4.50;;;;;;;;6124881;23;8920;-76
2022/01/07 01:48:56;;;;;;;;;11.50;4.25;;;;;;;;6153068;23;9516;-76
2022/01/07 01:51:21;;;;;;;;;8.00;5.00;;;;;;;;6150717;23;8747;-76
2022/01/07 01:53:47;;;;;;;;;9.00;7.75;;;;;;;;6151776;23;8766;-76
2022/01/07 01:56:12;;;;;;;;;8.50;5.00;;;;;;;;6152531;23;8755;-76
2022/01/07 01:58:37;;;;;;;;;9.00;8.00;;;;;;;;6151019;23;8782;-76
2022/01/07 02:01:03;;;;;;;;;6.33;5.67;;;;;;;;6151872;23;8835;-76
2022/01/07 02:03:28;;;;;;;;;6.75;6.75;;;;;;;;6152146;23;10988;-76
2022/01/07 02:05:54;;;;;;;;;5.75;4.75;;;;;;;;6152622;23;8781;-76
2022/01/07 02:08:19;;;;;;;;;11.50;7.00;;;;;;;;6153142;23;8763;-76
2022/01/07 02:10:44;;;;;;;;;7.25;7.25;;;;;;;;6150763;23;8762;-76
2022/01/07 02:13:10;;;;;;;;;11.00;10.33;;;;;;;;6153363;23;8750;-76
2022/01/07 02:15:37;;;;;;;;;11.50;7.50;;;;;;;;6152317;23;10730;-77
2022/01/07 02:18:02;;;;;;;;;8.25;7.75;;;;;;;;6151866;23;8968;-76
2022/01/07 02:20:31;;;;;;;;;12.00;8.00;;;;;;;;6152190;23;8754;-76
2022/01/07 02:22:57;;;;;;;;;6.00;5.75;;;;;;;;6153390;22;8827;-76
2022/01/07 02:25:22;;;;;;;;;7.50;7.50;;;;;;;;6153133;23;8754;-77
2022/01/07 02:27:47;;;;;;;;;12.75;8.00;;;;;;;;6154484;23;8750;-76
2022/01/07 02:30:14;;;;;;;;;6.50;4.00;;;;;;;;6151980;23;8865;-76
2022/01/07 02:32:40;;;;;;;;;7.00;5.50;;;;;;;;6153625;23;8782;-77
2022/01/07 02:35:05;;;;;;;;;8.75;4.00;;;;;;;;6152819;23;8889;-77
2022/01/07 02:37:30;;;;;;;;;9.25;8.00;;;;;;;;6150819;23;8743;-77
2022/01/07 02:39:56;;;;;;;;;11.50;6.00;;;;;;;;6150519;23;8758;-79
2022/01/07 02:42:21;;;;;;;;;5.67;4.67;;;;;;;;6151084;23;8813;-77
2022/01/07 02:44:47;;;;;;;;;8.00;6.75;;;;;;;;6151992;23;8982;-76
2022/01/07 02:47:13;;;;;;;;;10.00;8.00;;;;;;;;6151905;23;8754;-76
2022/01/07 02:49:38;;;;;;;;;9.00;6.50;;;;;;;;6150475;23;8757;-76
2022/01/07 02:52:03;;;;;;;;;8.00;5.00;;;;;;;;6153073;23;8788;-76
2022/01/07 02:57:04;;;;;;;;;5.00;5.00;;;;;;;;6190856;22;9401;-74
2022/01/07 02:59:31;;;;;;;;;7.75;5.00;;;;;;;;6187449;22;8838;-75
2022/01/07 03:01:57;;;;;;;;;4.50;4.50;;;;;;;;6181036;22;8849;-74
2022/01/07 03:04:23;;;;;;;;;9.00;6.25;;;;;;;;6181708;23;8764;-75
2022/01/07 03:06:49;;;;;;;;;9.75;6.75;;;;;;;;6184194;23;8886;-75
2022/01/07 03:09:14;;;;;;;;;11.75;4.75;;;;;;;;6181174;23;8874;-75
2022/01/07 03:11:40;;;;;;;;;11.50;5.25;;;;;;;;6285400;22;8796;-74
2022/01/07 03:14:05;;;;;;;;;7.75;5.75;;;;;;;;6287342;22;8792;-74
2022/01/07 03:16:30;;;;;;;;;9.50;4.75;;;;;;;;6180946;22;9488;-74
2022/01/07 03:18:55;;;;;;;;;9.00;5.50;;;;;;;;6183331;23;8843;-74
2022/01/07 03:21:21;;;;;;;;;4.67;2.67;;;;;;;;6180529;22;8845;-74
2022/01/07 03:23:46;;;;;;;;;5.33;5.00;;;;;;;;6182510;22;11428;-74
2022/01/07 03:26:11;;;;;;;;;5.33;5.33;;;;;;;;6184216;22;9001;-74
2022/01/07 03:28:37;;;;;;;;;8.50;6.00;;;;;;;;6181854;22;11556;-75
2022/01/07 03:31:02;;;;;;;;;10.75;8.00;;;;;;;;6288077;22;8792;-75
2022/01/07 03:33:27;;;;;;;;;5.75;5.75;;;;;;;;6183786;22;8768;-76
2022/01/07 03:35:53;;;;;;;;;5.75;5.75;;;;;;;;6285259;22;9739;-75
2022/01/07 03:38:19;;;;;;;;;9.67;5.67;;;;;;;;6182822;22;8768;-75
2022/01/07 03:40:45;;;;;;;;;7.50;7.50;;;;;;;;6178758;22;12296;-74
2022/01/07 03:43:10;;;;;;;;;6.00;6.00;;;;;;;;6181115;23;8748;-74
2022/01/07 03:45:36;;;;;;;;;5.75;5.25;;;;;;;;6184497;22;8793;-74
2022/01/07 03:48:01;;;;;;;;;11.67;6.00;;;;;;;;6183318;22;8874;-74
2022/01/07 03:59:07;;;;;;;;;7.25;6.00;;;;;;;;6185854;22;8733;-76
2022/01/07 04:04:07;;;;;;;;;7.75;6.25;;;;;;;;6175696;22;8804;-76
2022/01/07 04:20:27;;;;;;;;;6.00;3.75;;;;;;;;6215673;23;8801;-77
2022/01/07 04:22:53;;;;;;;;;7.00;5.00;;;;;;;;6323073;22;8809;-78
2022/01/07 04:25:27;;;;;;;;;5.50;5.50;;;;;;;;6220647;23;8762;-77
2022/01/07 04:28:08;;;;;;;;;5.25;4.75;;;;;;;;6220141;23;8770;-79
2022/01/07 04:42:38;;;;;;;;;6.75;5.25;;;;;;;;6233043;22;8785;-78
2022/01/07 04:45:04;;;;;;;;;9.00;4.75;;;;;;;;6187310;22;8760;-79
2022/01/07 04:47:29;;;;;;;;;7.00;5.25;;;;;;;;6290717;22;8846;-77
2022/01/07 04:50:30;;;;;;;;;;;;;;;;;;;;;
2022/01/07 04:53:16;;;;;;;;;5.00;5.00;;;;;;;;6191140;22;35393;-78
2022/01/07 04:55:43;;;;;;;;;2.50;2.50;;;;;;;;6287344;22;8693;-77
2022/01/07 04:58:10;;;;;;;;;4.00;3.50;;;;;;;;6285675;22;8772;-77
2022/01/07 05:11:58;;;;;;;;;7.25;4.50;;;;;;;;6210513;22;8911;-78
2022/01/07 05:14:23;;;;;;;;;8.00;4.50;;;;;;;;6214856;22;8791;-78
2022/01/07 05:16:59;;;;;;;;;4.50;2.50;;;;;;;;6318110;22;8754;-78
2022/01/07 05:19:36;;;;;;;;;5.00;3.50;;;;;;;;6321185;22;8770;-80
2022/01/07 05:22:04;;;;;;;;;8.25;4.50;;;;;;;;6223094;23;9384;-78
2022/01/07 05:24:50;;;;;;;;;4.00;4.00;;;;;;;;6213483;23;8750;-78
2022/01/07 05:39:06;;;;;;;;;3.50;3.50;;;;;;;;6188611;23;8749;-77
2022/01/07 05:41:32;;;;;;;;;8.33;4.00;;;;;;;;6287539;22;8930;-77
2022/01/07 05:43:59;;;;;;;;;8.00;4.00;;;;;;;;6186375;22;10321;-77
2022/01/07 05:46:51;;;;;;;;;7.00;4.75;;;;;;;;6196707;22;8768;-78
2022/01/07 05:49:38;;;;;;;;;5.00;4.50;;;;;;;;6190231;22;8788;-77
2022/01/07 05:52:03;;;;;;;;;5.00;3.00;;;;;;;;6289077;22;8769;-77
2022/01/07 05:54:34;;;;;;;;;5.75;5.75;;;;;;;;6188047;22;8761;-77
2022/01/07 05:57:06;;;;;;;;;3.50;3.50;;;;;;;;6291318;22;8791;-78
2022/01/07 05:59:55;;;;;;;;;10.50;5.00;;;;;;;;6185827;22;8752;-78
2022/01/07 06:02:22;;;;;;;;;4.75;4.00;;;;;;;;6183799;22;9509;-79
2022/01/07 06:05:26;;;;;;;;;5.00;4.00;;;;;;;;6193452;22;8751;-77
2022/01/07 06:07:54;;;;;;;;;4.00;4.00;;;;;;;;6289839;22;8757;-79
2022/01/07 06:10:40;;;;;;;;;4.25;3.50;;;;;;;;6192595;22;8758;-83
2022/01/07 06:13:06;;;;;;;;;3.50;2.50;;;;;;;;6184025;23;8724;-83
2022/01/07 06:15:31;;;;;;;;;9.00;4.25;;;;;;;;6180461;23;8788;-84
2022/01/07 06:17:56;;;;;;;;;5.25;4.00;;;;;;;;6283934;22;8776;-84
2022/01/07 06:20:28;;;;;;;;;9.00;5.00;;;;;;;;6285160;22;8853;-85
2022/01/07 06:28:59;;;;;;;;;15.00;9.50;;;;;;;;6187959;22;8788;-91
2022/01/07 06:31:24;;;;;;;;;8.00;8.00;;;;;;;;6295327;22;9661;-91
2022/01/07 06:33:50;;;;;;;;;12.50;10.00;;;;;;;;6188475;22;8796;-94
2022/01/07 06:36:15;;;;;;;;;11.50;11.00;;;;;;;;6299686;22;8757;-91
2022/01/07 06:38:43;;;;;;;;;11.33;11.00;;;;;;;;6297911;22;8788;-92
2022/01/07 06:41:08;;;;;;;;;12.50;12.00;;;;;;;;6188972;22;11443;-93
2022/01/07 06:43:43;;;;;;;;;8.00;6.25;;;;;;;;6293723;22;8883;-92
2022/01/07 06:46:08;;;;;;;;;6.25;5.25;;;;;;;;6292939;22;8740;-92
2022/01/07 06:48:34;;;;;;;;;11.00;8.50;;;;;;;;6188194;22;8777;-92
2022/01/07 06:50:59;;;;;;;;;21.00;12.75;;;;;;;;6289088;22;9537;-93
2022/01/07 06:53:24;;;;;;;;;15.25;11.50;;;;;;;;6187303;22;8795;-92
2022/01/07 06:55:50;;;;;;;;;6.75;5.25;;;;;;;;6293455;22;8787;-91
2022/01/07 06:58:15;;;;;;;;;4.75;4.75;;;;;;;;6292549;22;8788;-92
2022/01/07 07:00:40;;;;;;;;;5.50;4.75;;;;;;;;6186199;22;8776;-90
2022/01/07 07:03:06;;;;;;;;;6.67;5.33;;;;;;;;6292669;22;8970;-92
2022/01/07 07:05:31;;;;;;;;;4.33;3.33;;;;;;;;6186556;22;11399;-91
2022/01/07 07:07:56;;;;;;;;;4.00;4.00;;;;;;;;6292092;22;10336;-91
2022/01/07 07:10:22;;;;;;;;;6.00;2.00;;;;;;;;6298751;22;8784;-91
2022/01/07 07:12:47;;;;;;;;;1.75;1.75;;;;;;;;6198610;22;10789;-89
2022/01/07 07:15:13;;;;;;;;;5.75;5.00;;;;;;;;6192802;22;8776;-93
2022/01/07 07:17:38;;;;;;;;;5.25;5.25;;;;;;;;6187041;22;8749;-92
2022/01/07 07:20:03;;;;;;;;;5.00;5.00;;;;;;;;6187448;22;8780;-91
2022/01/07 07:22:29;;;;;;;;;7.75;4.50;;;;;;;;6294089;22;8760;-91
2022/01/07 07:24:55;;;;;;;;;7.00;6.00;;;;;;;;6189351;22;8780;-91
2022/01/07 07:27:20;;;;;;;;;5.00;5.00;;;;;;;;6190287;22;8784;-90
2022/01/07 07:29:46;;;;;;;;;11.67;5.00;;;;;;;;6188803;22;9560;-90
2022/01/07 07:32:14;;;;;;;;;7.00;5.50;;;;;;;;6187963;22;9067;-89
2022/01/07 07:37:05;;;;;;;;;4.00;4.00;;;;;;;;6183713;22;8827;-90
2022/01/07 07:39:31;;;;;;;;;4.50;4.50;;;;;;;;6292997;22;11423;-90
2022/01/07 07:41:56;;;;;;;;;5.50;5.50;;;;;;;;6287692;22;8824;-79
2022/01/07 07:44:21;;;;;;;;;5.25;5.25;;;;;;;;6184696;23;8736;-76
2022/01/07 07:46:46;;;;;;;;;6.67;4.33;;;;;;;;6287479;22;8815;-79
2022/01/07 07:49:13;;;;;;;;;7.50;5.25;;;;;;;;6182110;23;11507;-76
2022/01/07 07:51:38;;;;;;;;;7.75;3.50;;;;;;;;6187098;23;8779;-76
2022/01/07 07:56:44;;;;;;;;;5.50;4.00;;;;;;;;6184245;22;8728;-76
2022/01/07 07:59:09;;;;;;;;;9.50;8.00;;;;;;;;6186001;22;8732;-76
2022/01/07 08:01:36;;;;;;;;;9.00;5.75;;;;;;;;6185961;23;8919;-76
2022/01/07 08:07:24;;;;;;;;;6.00;5.00;;;;;;;;6190006;22;8904;-90
2022/01/07 08:09:51;;;;;;;;;7.50;5.00;;;;;;;;6298259;22;8768;-91
2022/01/07 08:12:29;;;;;;;;;5.00;2.50;;;;;;;;6298214;22;8768;-91
2022/01/07 08:17:41;;;;;;;;;5.00;4.00;;;;;;;;6183502;22;8737;-92
2022/01/07 08:34:54;;;;;;;;;13.50;10.25;;;;;;;;6185518;23;8772;-76
2022/01/07 08:37:29;;;;;;;;;13.75;10.00;;;;;;;;6184107;22;8744;-77
2022/01/07 08:39:55;;;;;;;;;19.75;16.25;;;;;;;;6185944;22;8741;-76
2022/01/07 08:42:23;;;;;;;;;14.50;9.00;;;;;;;;6185837;23;8716;-76
2022/01/07 08:44:54;;;;;;;;;10.50;10.00;;;;;;;;6184732;22;8756;-76
2022/01/07 08:47:23;;;;;;;;;11.50;8.50;;;;;;;;6183327;22;8787;-76
2022/01/07 08:49:48;;;;;;;;;12.00;5.75;;;;;;;;6184375;23;8768;-76
2022/01/07 08:52:14;;;;;;;;;7.25;6.00;;;;;;;;6288708;22;8937;-77
2022/01/07 08:54:39;;;;;;;;;8.25;5.00;;;;;;;;6286762;22;8797;-77
2022/01/07 08:57:05;;;;;;;;;9.00;6.00;;;;;;;;6183627;22;8761;-76
2022/01/07 08:59:30;;;;;;;;;9.00;5.00;;;;;;;;6186966;22;9981;-76
2022/01/07 09:01:55;;;;;;;;;6.67;6.00;;;;;;;;6184738;22;9610;-75
2022/01/07 09:04:20;;;;;;;;;8.33;8.00;;;;;;;;6181890;22;11604;-76
2022/01/07 09:06:46;;;;;;;;;9.00;5.67;;;;;;;;6185005;22;11494;-76
2022/01/07 09:09:11;;;;;;;;;6.67;5.33;;;;;;;;6182115;22;11557;-76
2022/01/07 09:11:37;;;;;;;;;5.75;5.50;;;;;;;;6182347;22;11352;-76
2022/01/07 09:14:02;;;;;;;;;9.50;8.75;;;;;;;;6184566;22;8811;-76
2022/01/07 09:16:27;;;;;;;;;5.50;4.00;;;;;;;;6182048;22;8748;-76
2022/01/07 09:18:53;;;;;;;;;8.00;6.00;;;;;;;;6183809;22;8782;-76
2022/01/07 09:21:18;;;;;;;;;13.00;10.00;;;;;;;;6182408;22;11003;-76
2022/01/07 09:23:44;;;;;;;;;10.00;10.00;;;;;;;;6183027;22;8798;-76
2022/01/07 09:26:09;;;;;;;;;13.50;9.50;;;;;;;;6181408;22;8788;-76
2022/01/07 09:31:11;;;;;;;;;9.50;7.00;;;;;;;;6170799;22;8823;-75
2022/01/07 09:33:56;;;;;;;;;16.50;12.25;;;;;;;;6276983;22;8902;-75
2022/01/07 09:36:21;;;;;;;;;16.75;14.25;;;;;;;;6209281;23;8747;-75
2022/01/07 09:38:47;;;;;;;;;11.33;10.00;;;;;;;;6207794;23;8750;-75
2022/01/07 09:41:12;;;;;;;;;12.67;12.00;;;;;;;;6208732;23;12195;-75
2022/01/07 09:43:37;;;;;;;;;15.75;12.00;;;;;;;;6208070;23;10908;-75
2022/01/07 09:46:03;;;;;;;;;8.67;8.00;;;;;;;;6181995;23;8770;-75
2022/01/07 09:48:28;;;;;;;;;11.75;9.25;;;;;;;;6209013;23;11372;-75
2022/01/07 09:50:53;;;;;;;;;7.00;6.00;;;;;;;;6206158;23;8802;-75
2022/01/07 09:55:46;;;;;;;;;4.00;4.00;;;;;;;;6147244;23;8802;-75
2022/01/07 09:58:14;;;;;;;;;3.25;2.00;;;;;;;;6152852;22;8904;-74
2022/01/07 10:00:41;;;;;;;;;2.00;2.00;;;;;;;;6147018;23;8758;-74
2022/01/07 10:03:08;;;;;;;;;6.50;2.50;;;;;;;;6151868;23;8808;-75
2022/01/07 10:05:46;;;;;;;;;3.75;3.75;;;;;;;;6177440;22;8843;-74
2022/01/07 10:08:19;;;;;;;;;2.00;2.00;;;;;;;;6176183;22;8827;-74
2022/01/07 10:10:45;;;;;;;;;5.25;4.25;;;;;;;;6175043;22;8685;-76
2022/01/07 10:13:11;;;;;;;;;6.25;4.50;;;;;;;;6175976;23;8752;-73
2022/01/07 10:15:37;;;;;;;;;2.25;2.00;;;;;;;;6170056;22;8792;-73
2022/01/07 10:18:04;;;;;;;;;6.00;5.75;;;;;;;;6277493;22;8767;-73
2022/01/07 10:20:31;;;;;;;;;6.50;4.00;;;;;;;;6174142;22;9157;-73
2022/01/07 10:23:01;;;;;;;;;5.00;3.75;;;;;;;;6176880;22;8745;-74
2022/01/07 10:33:18;;;;;;;;;7.75;6.00;;;;;;;;6173430;22;9875;-73
2022/01/07 10:35:43;;;;;;;;;9.50;6.00;;;;;;;;6146252;22;8783;-73
2022/01/07 10:38:08;;;;;;;;;9.25;7.00;;;;;;;;6148000;23;8809;-73
2022/01/07 10:40:39;;;;;;;;;8.00;5.00;;;;;;;;6249558;22;8844;-74
2022/01/07 10:43:08;;;;;;;;;6.75;4.00;;;;;;;;6148232;23;12266;-72
2022/01/07 10:45:34;;;;;;;;;7.50;5.25;;;;;;;;6146810;23;9531;-73
2022/01/07 10:47:59;;;;;;;;;9.00;6.00;;;;;;;;6164749;22;8909;-72
2022/01/07 10:50:24;;;;;;;;;7.33;5.00;;;;;;;;6177815;22;9513;-73
2022/01/07 10:52:51;;;;;;;;;10.00;9.00;;;;;;;;6176341;23;11077;-73
2022/01/07 10:55:18;;;;;;;;;8.50;5.00;;;;;;;;6174537;22;8740;-73
2022/01/07 10:57:45;;;;;;;;;9.00;6.00;;;;;;;;6179247;22;9497;-72
2022/01/07 11:00:15;;;;;;;;;10.25;6.00;;;;;;;;6178847;22;8827;-72
2022/01/07 11:02:40;;;;;;;;;9.00;5.25;;;;;;;;6177843;23;9603;-72
2022/01/07 11:05:07;;;;;;;;;3.50;3.50;;;;;;;;6177675;22;8811;-73
2022/01/07 11:10:42;;;;;;;;;5.25;2.75;;;;;;;;6182841;22;8776;-92
2022/01/07 11:13:09;;;;;;;;;10.00;9.00;;;;;;;;6222167;23;8842;-90
2022/01/07 11:15:37;;;;;;;;;45.25;39.25;;;;;;;;6196051;23;8734;-92
2022/01/07 11:18:02;;;;;;;;;9.75;5.25;;;;;;;;6198811;23;8766;-92
2022/01/07 11:20:28;;;;;;;;;2.25;2.25;;;;;;;;6214191;22;8824;-73
2022/01/07 11:22:54;;;;;;;;;1.00;1.00;;;;;;;;6275851;22;8796;-74
2022/01/07 11:25:20;;;;;;;;;7.00;7.00;;;;;;;;6175298;22;8701;-73
2022/01/07 11:27:48;;;;;;;;;6.00;3.00;;;;;;;;6177426;22;8868;-74
2022/01/07 11:30:15;;;;;;;;;10.00;6.75;;;;;;;;6173898;23;8752;-73
2022/01/07 11:32:42;;;;;;;;;3.75;2.75;;;;;;;;6176832;22;8851;-73
2022/01/07 11:35:16;;;;;;;;;0.75;0.75;;;;;;;;6177453;22;8781;-73
2022/01/07 11:37:42;;;;;;;;;5.00;1.00;;;;;;;;6276241;22;8739;-73
2022/01/07 11:42:43;;;;;;;;;1.00;1.00;;;;;;;;6147645;23;8809;-74
2022/01/07 11:45:28;;;;;;;;;1.00;1.00;;;;;;;;6145943;23;8842;-75
2022/01/07 11:47:54;;;;;;;;;1.00;1.00;;;;;;;;6147745;23;8750;-75
2022/01/07 11:50:20;;;;;;;;;0.00;0.00;;;;;;;;6146933;23;8782;-75
2022/01/07 11:52:58;;;;;;;;;0.00;0.00;;;;;;;;6140703;23;8766;-74
2022/01/07 11:55:36;;;;;;;;;0.25;0.25;;;;;;;;6146266;23;8814;-75
2022/01/07 11:58:06;;;;;;;;;0.25;0.00;;;;;;;;6124262;23;8809;-74
2022/01/07 12:00:47;;;;;;;;;2.00;0.00;;;;;;;;6123300;23;9715;-73
2022/01/07 12:03:12;;;;;;;;;0.75;0.00;;;;;;;;6150843;23;8734;-76
2022/01/07 12:05:37;;;;;;;;;1.25;0.00;;;;;;;;6148923;22;8782;-75
2022/01/07 12:13:13;;;;;;;;;2.50;2.00;;;;;;;;6179817;22;8819;-76
2022/01/07 12:15:42;;;;;;;;;5.00;1.67;;;;;;;;6182608;22;8824;-93
2022/01/07 12:18:08;;;;;;;;;2.25;2.25;;;;;;;;6194713;22;10859;-93
2022/01/07 12:20:48;;;;;;;;;5.00;2.00;;;;;;;;6300620;22;8787;-93
2022/01/07 12:23:20;;;;;;;;;0.75;0.75;;;;;;;;6299278;22;8802;-92
2022/01/07 12:26:03;;;;;;;;;;;;;;;;;;;;;
2022/01/07 12:29:09;;;;;;;;;1.75;0.00;;;;;;;;6190780;23;35773;-93
2022/01/07 12:36:56;;;;;;;;;1.75;0.00;;;;;;;;6221706;23;8829;-91
2022/01/07 12:42:10;;;;;;;;;2.00;1.00;;;;;;;;6352313;22;8819;-76
2022/01/07 12:44:43;;;;;;;;;0.50;0.50;;;;;;;;6369674;22;8809;-78
2022/01/07 12:47:23;;;;;;;;;;;;;;;;;;;;;
2022/01/07 12:49:57;;;;;;;;;0.50;0.50;;;;;;;;6369268;22;35856;-77
2022/01/07 12:52:46;;;;;;;;;0.00;0.00;;;;;;;;6373196;22;8732;-78
2022/01/07 12:55:53;;;;;;;;;;;;;;;;;;;;;
2022/01/07 12:58:36;;;;;;;;;;;;;;;;;;;;;
2022/01/07 13:01:21;;;;;;;;;1.00;1.00;;;;;;;;6374179;22;36606;-76
2022/01/07 13:03:46;;;;;;;;;0.50;0.50;;;;;;;;6378471;22;8847;-78
2022/01/07 13:06:12;;;;;;;;;1.25;0.00;;;;;;;;6341619;22;8797;-76
2022/01/07 13:08:42;;;;;;;;;1.00;0.00;;;;;;;;6370056;22;8790;-77
2022/01/07 13:11:07;;;;;;;;;2.00;0.25;;;;;;;;6371378;22;8758;-77
2022/01/07 13:13:35;;;;;;;;;0.00;0.00;;;;;;;;6341741;22;8771;-75
2022/01/07 13:16:03;;;;;;;;;0.25;0.25;;;;;;;;6369624;22;8732;-78
2022/01/07 13:21:43;;;;;;;;;1.00;0.00;;;;;;;;6354289;22;8728;-76
2022/01/07 13:27:13;;;;;;;;;6.00;5.00;;;;;;;;6372002;22;8854;-76
2022/01/07 13:29:45;;;;;;;;;0.00;0.00;;;;;;;;6340770;22;8743;-76
2022/01/07 13:32:29;;;;;;;;;;;;;;;;;;;;;
2022/01/07 13:46:39;;;;;;;;;3.00;1.00;;;;;;;;6198776;23;8720;-78
2022/01/07 13:49:55;;;;;;;;;;;;;;;;;;;;;
2022/01/07 13:52:34;;;;;;;;;0.00;0.00;;;;;;;;6093111;23;35480;-78
2022/01/07 13:55:00;;;;;;;;;0.50;0.50;;;;;;;;6087636;23;9184;-77
2022/01/07 13:57:29;;;;;;;;;2.00;1.00;;;;;;;;6092278;23;8832;-77
2022/01/07 13:59:54;;;;;;;;;0.00;0.00;;;;;;;;6068757;23;8739;-77
2022/01/07 14:02:23;;;;;;;;;0.00;0.00;;;;;;;;6093908;23;8790;-78
2022/01/07 14:05:33;;;;;;;;;;;;;;;;;;;;;
2022/01/07 14:08:09;;;;;;;;;0.25;0.25;;;;;;;;6063748;23;36104;-77
2022/01/07 14:10:54;;;;;;;;;1.00;0.00;;;;;;;;6066907;23;8813;-80
2022/01/07 14:13:53;;;;;;;;;0.00;0.00;;;;;;;;6064384;23;8757;-80
2022/01/07 14:23:15;;;;;;;;;2.50;0.00;;;;;;;;6018820;23;8732;-80
2022/01/07 14:25:33;;;;;;;;;0.75;0.00;;;;;;;;5996861;23;8784;-80
2022/01/07 14:27:59;;;;;;;;;0.00;0.00;;;;;;;;6000922;23;8776;-81
2022/01/07 14:30:27;;;;;;;;;0.50;0.50;;;;;;;;5977895;23;9548;-82
2022/01/07 14:33:04;;;;;;;;;0.00;0.00;;;;;;;;6002258;23;8784;-80
2022/01/07 14:42:29;;;;;;;;;1.00;1.00;;;;;;;;6040752;23;9716;-82
2022/01/07 14:48:09;;;;;;;;;7.50;4.75;;;;;;;;6003947;23;8706;-79
2022/01/07 14:51:09;;;;;;;;;;;;;;;;;;;;;
2022/01/07 14:53:37;;;;;;;;;0.75;0.75;;;;;;;;6059189;23;36800;-81
2022/01/07 14:56:08;;;;;;;;;0.00;0.00;;;;;;;;6062728;23;8737;-79
2022/01/07 14:59:03;;;;;;;;;13.50;9.50;;;;;;;;6132922;23;8751;-79
2022/01/07 15:01:36;;;;;;;;;3.50;0.25;;;;;;;;6127767;23;8766;-80
2022/01/07 15:04:04;;;;;;;;;0.50;0.50;;;;;;;;6150011;23;8743;-83
2022/01/07 15:06:30;;;;;;;;;8.50;7.00;;;;;;;;6313126;22;8750;-94
2022/01/07 15:08:55;;;;;;;;;3.25;2.75;;;;;;;;6313488;22;8798;-74
2022/01/07 15:11:21;;;;;;;;;16.00;13.33;;;;;;;;6332191;22;8754;-75
2022/01/07 15:13:46;;;;;;;;;4.50;3.00;;;;;;;;6334426;22;11467;-74
2022/01/07 15:18:55;;;;;;;;;7.75;6.50;;;;;;;;6333163;22;8719;-74
2022/01/07 15:21:20;;;;;;;;;0.33;0.33;;;;;;;;6335609;22;8866;-74
2022/01/07 15:23:45;;;;;;;;;2.00;1.25;;;;;;;;6332217;22;10516;-72
2022/01/07 15:26:11;;;;;;;;;18.00;10.00;;;;;;;;6335892;22;8750;-74
2022/01/07 15:28:36;;;;;;;;;0.75;0.75;;;;;;;;6290886;22;11458;-71
2022/01/07 15:31:02;;;;;;;;;1.50;0.00;;;;;;;;6329510;22;8792;-72
2022/01/07 15:33:27;;;;;;;;;7.25;6.25;;;;;;;;6333748;22;9124;-72
2022/01/07 15:35:53;;;;;;;;;7.33;2.00;;;;;;;;6331697;22;8798;-72
2022/01/07 15:38:18;;;;;;;;;0.75;0.75;;;;;;;;6332911;22;9456;-72
2022/01/07 15:40:43;;;;;;;;;1.25;1.25;;;;;;;;6330302;22;8749;-72
2022/01/07 15:43:08;;;;;;;;;3.00;1.00;;;;;;;;6336816;22;8742;-71
2022/01/07 15:45:33;;;;;;;;;0.00;0.00;;;;;;;;6336816;22;8827;-71
2022/01/07 15:48:01;;;;;;;;;3.00;1.00;;;;;;;;6248801;22;11503;-72
2022/01/07 16:00:41;;;;;;;;;12.50;6.75;;;;;;;;6151513;22;8778;-72
2022/01/07 16:03:06;;;;;;;;;1.67;1.33;;;;;;;;6175833;22;8869;-71
2022/01/07 16:05:33;;;;;;;;;5.00;0.67;;;;;;;;6172941;22;11508;-74
2022/01/07 16:07:58;;;;;;;;;1.75;0.75;;;;;;;;6176061;22;9022;-74
2022/01/07 16:10:23;;;;;;;;;2.00;2.00;;;;;;;;6177199;22;8768;-75
2022/01/07 16:12:49;;;;;;;;;0.00;0.00;;;;;;;;6178089;22;8768;-75
2022/01/07 16:15:14;;;;;;;;;1.00;1.00;;;;;;;;6177414;22;8780;-76
2022/01/07 16:17:39;;;;;;;;;1.00;1.00;;;;;;;;6279964;22;11622;-76
2022/01/07 16:20:05;;;;;;;;;3.00;0.75;;;;;;;;6178417;22;11506;-76
2022/01/07 16:22:30;;;;;;;;;0.00;0.00;;;;;;;;6175518;22;8839;-76
2022/01/07 16:24:57;;;;;;;;;1.00;1.00;;;;;;;;6175112;22;8928;-75
2022/01/07 16:27:22;;;;;;;;;0.00;0.00;;;;;;;;6177181;22;10307;-75
2022/01/07 16:29:47;;;;;;;;;2.25;0.75;;;;;;;;6175377;23;8776;-74
2022/01/07 16:32:13;;;;;;;;;2.50;0.00;;;;;;;;6174978;22;8792;-74
2022/01/07 16:34:38;;;;;;;;;2.00;0.00;;;;;;;;6278000;22;8792;-74
2022/01/07 16:37:03;;;;;;;;;2.33;1.33;;;;;;;;6175245;22;8851;-74
2022/01/07 16:39:28;;;;;;;;;1.50;1.00;;;;;;;;6176905;22;8887;-74
2022/01/07 16:41:54;;;;;;;;;5.67;1.00;;;;;;;;6172943;22;8827;-75
2022/01/07 16:44:19;;;;;;;;;1.33;0.67;;;;;;;;6179553;22;12341;-75
2022/01/07 16:46:44;;;;;;;;;1.00;1.00;;;;;;;;6277514;22;11705;-76
2022/01/07 16:49:11;;;;;;;;;4.33;2.00;;;;;;;;6179157;22;8764;-75
2022/01/07 16:51:37;;;;;;;;;3.50;2.25;;;;;;;;6179266;22;11465;-75
2022/01/07 16:54:02;;;;;;;;;2.00;1.00;;;;;;;;6179917;22;8844;-76
2022/01/07 16:56:27;;;;;;;;;3.00;1.00;;;;;;;;6281935;22;10628;-75
2022/01/07 17:01:27;;;;;;;;;3.00;1.50;;;;;;;;6177373;22;11545;-76
2022/01/07 17:03:54;;;;;;;;;2.00;2.00;;;;;;;;6180114;22;8780;-77
2022/01/07 17:06:20;;;;;;;;;5.75;2.00;;;;;;;;6179381;22;8725;-77
2022/01/07 17:08:45;;;;;;;;;1.00;1.00;;;;;;;;6178296;23;8784;-76
2022/01/07 17:11:13;;;;;;;;;1.50;1.50;;;;;;;;6179378;22;8968;-74
2022/01/07 17:13:38;;;;;;;;;2.50;2.25;;;;;;;;6277919;22;8782;-76
2022/01/07 17:16:04;;;;;;;;;3.50;3.00;;;;;;;;6144882;22;8836;-76
2022/01/07 17:18:29;;;;;;;;;1.50;1.50;;;;;;;;6146664;23;8775;-76
2022/01/07 17:20:54;;;;;;;;;4.50;2.75;;;;;;;;6146390;22;8791;-76
2022/01/07 17:23:19;;;;;;;;;2.00;2.00;;;;;;;;6148198;22;8801;-76
2022/01/07 17:25:45;;;;;;;;;39.00;24.00;;;;;;;;6150420;22;8801;-77
2022/01/07 17:28:10;;;;;;;;;13.67;7.00;;;;;;;;6143608;22;8917;-77
2022/01/07 17:30:35;;;;;;;;;7.67;3.00;;;;;;;;6150085;22;10688;-77
2022/01/07 17:33:00;;;;;;;;;11.00;7.00;;;;;;;;6148726;22;11441;-75
2022/01/07 17:35:26;;;;;;;;;6.50;6.00;;;;;;;;6243203;22;11546;-75
2022/01/07 17:37:51;;;;;;;;;7.00;5.67;;;;;;;;6151388;22;8869;-75
2022/01/07 17:40:16;;;;;;;;;11.67;10.00;;;;;;;;6279862;22;11522;-76
2022/01/07 17:42:41;;;;;;;;;9.25;6.50;;;;;;;;6257461;22;9413;-76
2022/01/07 17:45:07;;;;;;;;;5.25;4.00;;;;;;;;6151903;22;9586;-76
2022/01/07 17:47:32;;;;;;;;;6.25;4.00;;;;;;;;6281881;22;8880;-78
2022/01/07 17:49:58;;;;;;;;;8.25;5.00;;;;;;;;6154426;22;8897;-77
2022/01/07 17:52:28;;;;;;;;;5.75;4.00;;;;;;;;6284653;22;8931;-92
2022/01/07 17:57:30;;;;;;;;;5.00;5.00;;;;;;;;6175857;22;9601;-78
2022/01/07 17:59:56;;;;;;;;;2.00;2.00;;;;;;;;6181045;22;8753;-79
2022/01/07 18:02:21;;;;;;;;;4.50;4.50;;;;;;;;6183093;22;8849;-81
2022/01/07 18:04:48;;;;;;;;;10.75;5.50;;;;;;;;6289236;22;8803;-81
2022/01/07 18:07:14;;;;;;;;;6.25;5.75;;;;;;;;6184945;22;8787;-81
2022/01/07 18:09:42;;;;;;;;;12.75;7.00;;;;;;;;6193123;22;8748;-81
2022/01/07 18:12:07;;;;;;;;;5.00;5.00;;;;;;;;6186688;22;8760;-81
2022/01/07 18:14:33;;;;;;;;;7.00;6.00;;;;;;;;6287002;22;8780;-78
2022/01/07 18:16:59;;;;;;;;;6.75;4.00;;;;;;;;6181131;23;8834;-81
2022/01/07 18:19:24;;;;;;;;;8.50;6.00;;;;;;;;6285829;22;8779;-85
2022/01/07 18:21:49;;;;;;;;;5.25;5.25;;;;;;;;6186546;22;8737;-83
2022/01/07 18:29:57;;;;;;;;;5.50;5.50;;;;;;;;6211202;22;8793;-92